sensor_id;sensor_type;location;lat;lon;timestamp;pressure;altitude;pressure_sealevel;temperature;humidity
75418;BME280;63997;52.112;5.420;2023-03-02T00:02:32;102765.06;;;-0.44;81.54
75418;BME280;63997;52.112;5.420;2023-03-02T00:04:40;102770.28;;;-0.44;81.64
75418;BME280;63997;52.112;5.420;2023-03-02T00:07:13;102766.66;;;-0.43;82.28
75418;BME280;63997;52.112;5.420;2023-03-02T00:09:41;102768.69;;;-0.38;82.46
75418;BME280;63997;52.112;5.420;2023-03-02T00:12:10;102759.41;;;-0.34;83.17
75418;BME280;63997;52.112;5.420;2023-03-02T00:14:37;102768.09;;;-0.34;83.59
75418;BME280;63997;52.112;5.420;2023-03-02T00:17:04;102756.63;;;-0.33;83.64
75418;BME280;63997;52.112;5.420;2023-03-02T00:19:30;102749.81;;;-0.34;83.86
75418;BME280;63997;52.112;5.420;2023-03-02T00:21:57;102754.00;;;-0.33;83.88
75418;BME280;63997;52.112;5.420;2023-03-02T00:24:23;102744.16;;;-0.31;84.24
75418;BME280;63997;52.112;5.420;2023-03-02T00:26:50;102743.34;;;-0.31;84.42
75418;BME280;63997;52.112;5.420;2023-03-02T00:29:16;102740.53;;;-0.30;84.65
75418;BME280;63997;52.112;5.420;2023-03-02T00:31:43;102749.59;;;-0.25;84.91
75418;BME280;63997;52.112;5.420;2023-03-02T00:34:09;102747.78;;;-0.25;85.04
75418;BME280;63997;52.112;5.420;2023-03-02T00:36:35;102753.59;;;-0.23;85.13
75418;BME280;63997;52.112;5.420;2023-03-02T00:39:02;102750.19;;;-0.23;85.13
75418;BME280;63997;52.112;5.420;2023-03-02T00:41:29;102750.59;;;-0.20;85.46
75418;BME280;63997;52.112;5.420;2023-03-02T00:43:56;102755.84;;;-0.20;85.63
75418;BME280;63997;52.112;5.420;2023-03-02T00:46:23;102755.03;;;-0.20;85.89
75418;BME280;63997;52.112;5.420;2023-03-02T00:48:51;102747.19;;;-0.20;85.94
75418;BME280;63997;52.112;5.420;2023-03-02T00:51:17;102745.59;;;-0.21;86.00
75418;BME280;63997;52.112;5.420;2023-03-02T00:53:44;102747.41;;;-0.22;86.13
75418;BME280;63997;52.112;5.420;2023-03-02T00:56:10;102753.44;;;-0.21;86.42
75418;BME280;63997;52.112;5.420;2023-03-02T00:58:37;102747.19;;;-0.20;86.48
75418;BME280;63997;52.112;5.420;2023-03-02T01:01:09;102754.22;;;-0.21;86.62
75418;BME280;63997;52.112;5.420;2023-03-02T01:03:36;102749.81;;;-0.20;86.82
75418;BME280;63997;52.112;5.420;2023-03-02T01:06:03;102747.78;;;-0.18;87.25
75418;BME280;63997;52.112;5.420;2023-03-02T01:08:30;102743.78;;;-0.21;87.03
75418;BME280;63997;52.112;5.420;2023-03-02T01:10:56;102748.19;;;-0.21;87.20
75418;BME280;63997;52.112;5.420;2023-03-02T01:13:26;102746.78;;;-0.24;87.10
75418;BME280;63997;52.112;5.420;2023-03-02T01:16:01;102744.16;;;-0.24;87.60
75418;BME280;63997;52.112;5.420;2023-03-02T01:18:28;102743.34;;;-0.24;87.06
75418;BME280;63997;52.112;5.420;2023-03-02T01:21:06;102745.75;;;-0.30;87.25
75418;BME280;63997;52.112;5.420;2023-03-02T01:23:34;102752.59;;;-0.29;87.24
75418;BME280;63997;52.112;5.420;2023-03-02T01:26:01;102740.94;;;-0.33;87.10
75418;BME280;63997;52.112;5.420;2023-03-02T01:28:27;102742.56;;;-0.32;87.21
75418;BME280;63997;52.112;5.420;2023-03-02T01:31:08;102738.13;;;-0.31;87.27
75418;BME280;63997;52.112;5.420;2023-03-02T01:33:34;102738.94;;;-0.31;87.42
75418;BME280;63997;52.112;5.420;2023-03-02T01:36:01;102732.91;;;-0.31;87.46
75418;BME280;63997;52.112;5.420;2023-03-02T01:38:27;102732.31;;;-0.27;88.29
75418;BME280;63997;52.112;5.420;2023-03-02T01:40:54;102718.81;;;-0.23;88.12
75418;BME280;63997;52.112;5.420;2023-03-02T01:43:20;102725.84;;;-0.24;88.50
75418;BME280;63997;52.112;5.420;2023-03-02T01:45:58;102725.69;;;-0.22;88.60
75418;BME280;63997;52.112;5.420;2023-03-02T01:48:33;102728.47;;;-0.24;88.59
75418;BME280;63997;52.112;5.420;2023-03-02T01:51:01;102728.69;;;-0.25;88.45
75418;BME280;63997;52.112;5.420;2023-03-02T01:53:30;102721.22;;;-0.29;88.41
75418;BME280;63997;52.112;5.420;2023-03-02T01:55:58;102721.22;;;-0.29;88.35
75418;BME280;63997;52.112;5.420;2023-03-02T01:58:27;102729.91;;;-0.28;88.53
75418;BME280;63997;52.112;5.420;2023-03-02T02:00:55;102722.66;;;-0.33;88.31
75418;BME280;63997;52.112;5.420;2023-03-02T02:03:24;102728.69;;;-0.39;88.08
75418;BME280;63997;52.112;5.420;2023-03-02T02:06:05;102725.66;;;-0.42;88.12
75418;BME280;63997;52.112;5.420;2023-03-02T02:08:35;102721.22;;;-0.42;88.06
75418;BME280;63997;52.112;5.420;2023-03-02T02:11:02;102721.22;;;-0.42;88.07
75418;BME280;63997;52.112;5.420;2023-03-02T02:13:29;102726.44;;;-0.42;88.14
75418;BME280;63997;52.112;5.420;2023-03-02T02:15:55;102716.00;;;-0.42;88.29
75418;BME280;63997;52.112;5.420;2023-03-02T02:18:22;102725.25;;;-0.39;88.28
75418;BME280;63997;52.112;5.420;2023-03-02T02:20:51;102713.97;;;-0.40;88.41
75418;BME280;63997;52.112;5.420;2023-03-02T02:26:28;102710.38;;;-0.39;88.74
75418;BME280;63997;52.112;5.420;2023-03-02T02:29:05;102702.75;;;-0.34;89.13
75418;BME280;63997;52.112;5.420;2023-03-02T02:31:46;102707.56;;;-0.31;89.15
75418;BME280;63997;52.112;5.420;2023-03-02T02:34:40;102703.94;;;-0.30;89.27
75418;BME280;63997;52.112;5.420;2023-03-02T02:37:31;102711.97;;;-0.31;89.26
75418;BME280;63997;52.112;5.420;2023-03-02T02:39:59;102709.59;;;-0.33;88.96
75418;BME280;63997;52.112;5.420;2023-03-02T02:42:33;102706.75;;;-0.31;89.32
75418;BME280;63997;52.112;5.420;2023-03-02T02:45:03;102697.09;;;-0.31;89.31
75418;BME280;63997;52.112;5.420;2023-03-02T02:47:30;102701.16;;;-0.28;89.38
75418;BME280;63997;52.112;5.420;2023-03-02T02:49:57;102697.69;;;-0.29;89.24
75418;BME280;63997;52.112;5.420;2023-03-02T02:52:25;102693.91;;;-0.33;89.16
75418;BME280;63997;52.112;5.420;2023-03-02T02:54:55;102695.50;;;-0.32;89.37
75418;BME280;63997;52.112;5.420;2023-03-02T02:57:25;102694.91;;;-0.34;89.25
75418;BME280;63997;52.112;5.420;2023-03-02T02:59:56;102697.69;;;-0.35;89.41
75418;BME280;63997;52.112;5.420;2023-03-02T03:02:26;102686.06;;;-0.39;89.29
75418;BME280;63997;52.112;5.420;2023-03-02T03:04:53;102693.47;;;-0.43;88.96
75418;BME280;63997;52.112;5.420;2023-03-02T03:07:29;102690.28;;;-0.45;89.02
75418;BME280;63997;52.112;5.420;2023-03-02T03:10:03;102683.81;;;-0.49;89.06
75418;BME280;63997;52.112;5.420;2023-03-02T03:12:31;102694.66;;;-0.52;89.02
75418;BME280;63997;52.112;5.420;2023-03-02T03:15:00;102694.28;;;-0.56;88.87
75418;BME280;63997;52.112;5.420;2023-03-02T03:17:27;102692.25;;;-0.60;88.71
75418;BME280;63997;52.112;5.420;2023-03-02T03:19:54;102695.88;;;-0.61;88.97
75418;BME280;63997;52.112;5.420;2023-03-02T03:22:34;102692.25;;;-0.60;89.13
75418;BME280;63997;52.112;5.420;2023-03-02T03:25:01;102687.03;;;-0.60;89.12
75418;BME280;63997;52.112;5.420;2023-03-02T03:27:27;102685.63;;;-0.56;89.45
75418;BME280;63997;52.112;5.420;2023-03-02T03:29:54;102679.78;;;-0.51;89.84
75418;BME280;63997;52.112;5.420;2023-03-02T03:32:20;102679.41;;;-0.48;89.88
75418;BME280;63997;52.112;5.420;2023-03-02T03:34:47;102678.81;;;-0.50;89.95
75418;BME280;63997;52.112;5.420;2023-03-02T03:37:16;102673.75;;;-0.52;89.76
75418;BME280;63997;52.112;5.420;2023-03-02T03:39:43;102674.16;;;-0.55;89.90
75418;BME280;63997;52.112;5.420;2023-03-02T03:42:10;102673.97;;;-0.54;89.80
75418;BME280;63997;52.112;5.420;2023-03-02T03:44:37;102681.81;;;-0.54;89.91
75418;BME280;63997;52.112;5.420;2023-03-02T03:47:03;102677.78;;;-0.56;89.86
75418;BME280;63997;52.112;5.420;2023-03-02T03:49:30;102684.00;;;-0.57;89.81
75418;BME280;63997;52.112;5.420;2023-03-02T03:51:56;102681.78;;;-0.60;89.78
75418;BME280;63997;52.112;5.420;2023-03-02T03:54:22;102681.00;;;-0.61;89.76
75418;BME280;63997;52.112;5.420;2023-03-02T03:56:49;102689.22;;;-0.64;89.72
75418;BME280;63997;52.112;5.420;2023-03-02T03:59:21;102688.00;;;-0.68;89.59
75418;BME280;63997;52.112;5.420;2023-03-02T04:01:59;102693.84;;;-0.72;89.70
75418;BME280;63997;52.112;5.420;2023-03-02T04:04:31;102690.59;;;-0.74;89.66
75418;BME280;63997;52.112;5.420;2023-03-02T04:06:58;102689.00;;;-0.75;89.77
75418;BME280;63997;52.112;5.420;2023-03-02T04:09:25;102699.00;;;-0.79;89.73
75418;BME280;63997;52.112;5.420;2023-03-02T04:11:54;102699.00;;;-0.79;89.71
75418;BME280;63997;52.112;5.420;2023-03-02T04:14:22;102696.41;;;-0.79;89.90
75418;BME280;63997;52.112;5.420;2023-03-02T04:16:49;102698.22;;;-0.80;89.95
75418;BME280;63997;52.112;5.420;2023-03-02T04:19:16;102697.03;;;-0.77;89.88
75418;BME280;63997;52.112;5.420;2023-03-02T04:21:45;102685.97;;;-0.79;89.96
75418;BME280;63997;52.112;5.420;2023-03-02T04:24:13;102684.56;;;-0.75;90.29
75418;BME280;63997;52.112;5.420;2023-03-02T04:26:40;102681.97;;;-0.75;90.24
75418;BME280;63997;52.112;5.420;2023-03-02T04:29:08;102686.38;;;-0.75;90.21
75418;BME280;63997;52.112;5.420;2023-03-02T04:31:34;102689.59;;;-0.73;90.28
75418;BME280;63997;52.112;5.420;2023-03-02T04:34:02;102686.97;;;-0.73;90.31
75418;BME280;63997;52.112;5.420;2023-03-02T04:36:30;102683.78;;;-0.75;90.15
75418;BME280;63997;52.112;5.420;2023-03-02T04:38:58;102685.56;;;-0.76;90.25
75418;BME280;63997;52.112;5.420;2023-03-02T04:41:24;102690.38;;;-0.80;90.11
75418;BME280;63997;52.112;5.420;2023-03-02T04:43:50;102690.59;;;-0.81;90.34
75418;BME280;63997;52.112;5.420;2023-03-02T04:46:20;102686.56;;;-0.84;90.37
75418;BME280;63997;52.112;5.420;2023-03-02T04:48:48;102693.78;;;-0.86;90.08
75418;BME280;63997;52.112;5.420;2023-03-02T04:51:41;102691.78;;;-0.84;90.43
75418;BME280;63997;52.112;5.420;2023-03-02T04:54:15;102692.19;;;-0.80;90.57
75418;BME280;63997;52.112;5.420;2023-03-02T04:56:43;102697.84;;;-0.76;90.62
75418;BME280;63997;52.112;5.420;2023-03-02T04:59:10;102693.78;;;-0.79;90.58
75418;BME280;63997;52.112;5.420;2023-03-02T05:01:36;102688.56;;;-0.79;90.57
75418;BME280;63997;52.112;5.420;2023-03-02T05:04:03;102692.78;;;-0.85;90.43
75418;BME280;63997;52.112;5.420;2023-03-02T05:06:29;102683.53;;;-0.87;90.29
75418;BME280;63997;52.112;5.420;2023-03-02T05:08:56;102686.94;;;-0.87;90.57
75418;BME280;63997;52.112;5.420;2023-03-02T05:11:25;102682.13;;;-0.90;90.43
75418;BME280;63997;52.112;5.420;2023-03-02T05:13:56;102679.91;;;-0.93;90.48
75418;BME280;63997;52.112;5.420;2023-03-02T05:16:25;102682.53;;;-0.93;90.62
75418;BME280;63997;52.112;5.420;2023-03-02T05:18:54;102680.50;;;-0.91;90.59
75418;BME280;63997;52.112;5.420;2023-03-02T05:21:21;102682.72;;;-0.94;90.57
75418;BME280;63997;52.112;5.420;2023-03-02T05:23:47;102683.53;;;-0.94;90.39
75418;BME280;63997;52.112;5.420;2023-03-02T05:26:14;102678.50;;;-0.95;90.46
75418;BME280;63997;52.112;5.420;2023-03-02T05:28:41;102673.28;;;-0.95;90.46
75418;BME280;63997;52.112;5.420;2023-03-02T05:31:08;102681.72;;;-0.93;90.50
75418;BME280;63997;52.112;5.420;2023-03-02T05:33:34;102683.72;;;-0.95;90.42
75418;BME280;63997;52.112;5.420;2023-03-02T05:36:01;102683.91;;;-0.97;90.36
75418;BME280;63997;52.112;5.420;2023-03-02T05:38:27;102684.09;;;-0.98;90.35
75418;BME280;63997;52.112;5.420;2023-03-02T05:40:56;102680.69;;;-0.99;90.30
75418;BME280;63997;52.112;5.420;2023-03-02T05:43:23;102680.09;;;-1.01;90.37
75418;BME280;63997;52.112;5.420;2023-03-02T05:45:49;102672.84;;;-1.05;90.11
75418;BME280;63997;52.112;5.420;2023-03-02T05:48:15;102674.81;;;-1.08;90.12
75418;BME280;63997;52.112;5.420;2023-03-02T05:50:42;102673.22;;;-1.09;90.08
75418;BME280;63997;52.112;5.420;2023-03-02T05:53:08;102668.41;;;-1.12;90.20
75418;BME280;63997;52.112;5.420;2023-03-02T05:55:35;102675.22;;;-1.11;90.27
75418;BME280;63997;52.112;5.420;2023-03-02T05:58:06;102676.25;;;-1.12;90.28
75418;BME280;63997;52.112;5.420;2023-03-02T06:00:34;102679.66;;;-1.11;90.43
75418;BME280;63997;52.112;5.420;2023-03-02T06:03:00;102686.84;;;-1.13;90.32
75418;BME280;63997;52.112;5.420;2023-03-02T06:05:27;102689.66;;;-1.15;90.26
75418;BME280;63997;52.112;5.420;2023-03-02T06:07:53;102692.47;;;-1.16;90.24
75418;BME280;63997;52.112;5.420;2023-03-02T06:10:20;102694.09;;;-1.15;90.24
75418;BME280;63997;52.112;5.420;2023-03-02T06:12:46;102692.06;;;-1.13;90.30
75418;BME280;63997;52.112;5.420;2023-03-02T06:15:12;102693.06;;;-1.14;90.49
75418;BME280;63997;52.112;5.420;2023-03-02T06:17:39;102695.69;;;-1.14;90.26
75418;BME280;63997;52.112;5.420;2023-03-02T06:20:06;102695.69;;;-1.14;90.35
75418;BME280;63997;52.112;5.420;2023-03-02T06:22:42;102699.72;;;-1.12;90.41
75418;BME280;63997;52.112;5.420;2023-03-02T06:25:16;102696.72;;;-1.09;90.48
75418;BME280;63997;52.112;5.420;2023-03-02T06:27:43;102692.94;;;-1.06;90.26
75418;BME280;63997;52.112;5.420;2023-03-02T06:30:14;102703.38;;;-1.06;90.46
75418;BME280;63997;52.112;5.420;2023-03-02T06:32:41;102699.75;;;-1.05;90.24
75418;BME280;63997;52.112;5.420;2023-03-02T06:35:08;102704.78;;;-1.03;90.25
75418;BME280;63997;52.112;5.420;2023-03-02T06:37:35;102708.19;;;-1.03;90.14
75418;BME280;63997;52.112;5.420;2023-03-02T06:40:02;102715.00;;;-1.02;89.95
75418;BME280;63997;52.112;5.420;2023-03-02T06:42:33;102715.66;;;-1.00;89.94
75418;BME280;63997;52.112;5.420;2023-03-02T06:44:59;102711.47;;;-0.81;90.15
75418;BME280;63997;52.112;5.420;2023-03-02T06:47:26;102716.19;;;-0.37;90.19
75418;BME280;63997;52.112;5.420;2023-03-02T06:49:52;102714.22;;;-0.21;89.33
75418;BME280;63997;52.112;5.420;2023-03-02T06:52:18;102715.22;;;-0.16;88.99
75418;BME280;63997;52.112;5.420;2023-03-02T06:54:45;102719.44;;;-0.08;88.49
75418;BME280;63997;52.112;5.420;2023-03-02T06:57:11;102718.84;;;-0.10;88.33
75418;BME280;63997;52.112;5.420;2023-03-02T06:59:37;102713.22;;;0.06;87.98
75418;BME280;63997;52.112;5.420;2023-03-02T07:02:04;102712.41;;;0.12;87.70
75418;BME280;63997;52.112;5.420;2023-03-02T07:04:30;102716.00;;;0.11;87.30
75418;BME280;63997;52.112;5.420;2023-03-02T07:06:57;102719.63;;;0.23;87.12
75418;BME280;63997;52.112;5.420;2023-03-02T07:09:23;102717.00;;;0.37;86.95
75418;BME280;63997;52.112;5.420;2023-03-02T07:11:50;102721.63;;;0.35;86.26
75418;BME280;63997;52.112;5.420;2023-03-02T07:14:16;102720.00;;;0.34;86.25
75418;BME280;63997;52.112;5.420;2023-03-02T07:16:42;102718.75;;;0.56;86.80
75418;BME280;63997;52.112;5.420;2023-03-02T07:19:11;102719.44;;;0.90;85.82
75418;BME280;63997;52.112;5.420;2023-03-02T07:21:39;102713.38;;;1.02;85.31
75418;BME280;63997;52.112;5.420;2023-03-02T07:24:05;102718.97;;;1.13;84.79
75418;BME280;63997;52.112;5.420;2023-03-02T07:26:32;102719.44;;;1.35;84.88
75418;BME280;63997;52.112;5.420;2023-03-02T07:28:58;102714.34;;;1.46;83.71
75418;BME280;63997;52.112;5.420;2023-03-02T07:31:25;102713.69;;;1.82;83.71
75418;BME280;63997;52.112;5.420;2023-03-02T07:33:51;102707.69;;;2.25;82.72
75418;BME280;63997;52.112;5.420;2023-03-02T07:36:18;102706.38;;;3.50;81.57
75418;BME280;63997;52.112;5.420;2023-03-02T07:38:44;102701.25;;;4.48;77.56
75418;BME280;63997;52.112;5.420;2023-03-02T07:41:11;102709.31;;;3.95;75.57
75418;BME280;63997;52.112;5.420;2023-03-02T07:43:37;102704.03;;;3.41;76.14
75418;BME280;63997;52.112;5.420;2023-03-02T07:46:04;102704.47;;;3.27;76.22
75418;BME280;63997;52.112;5.420;2023-03-02T07:48:31;102707.38;;;3.37;76.44
75418;BME280;63997;52.112;5.420;2023-03-02T07:50:59;102702.50;;;3.22;75.43
75418;BME280;63997;52.112;5.420;2023-03-02T07:53:26;102703.94;;;3.06;75.52
75418;BME280;63997;52.112;5.420;2023-03-02T07:55:53;102705.50;;;2.77;76.39
75418;BME280;63997;52.112;5.420;2023-03-02T07:58:19;102710.16;;;2.94;76.88
75418;BME280;63997;52.112;5.420;2023-03-02T08:00:47;102703.91;;;3.36;76.95
75418;BME280;63997;52.112;5.420;2023-03-02T08:03:14;102702.19;;;3.72;75.61
75418;BME280;63997;52.112;5.420;2023-03-02T08:05:40;102698.88;;;4.00;75.48
75418;BME280;63997;52.112;5.420;2023-03-02T08:08:06;102698.66;;;4.13;74.05
75418;BME280;63997;52.112;5.420;2023-03-02T08:10:34;102691.78;;;3.77;73.40
75418;BME280;63997;52.112;5.420;2023-03-02T08:13:00;102698.09;;;3.34;73.92
75418;BME280;63997;52.112;5.420;2023-03-02T08:15:27;102697.50;;;3.02;74.83
75418;BME280;63997;52.112;5.420;2023-03-02T08:17:53;102698.16;;;3.16;75.32
75418;BME280;63997;52.112;5.420;2023-03-02T08:20:20;102704.16;;;3.05;75.39
75418;BME280;63997;52.112;5.420;2023-03-02T08:22:46;102695.31;;;3.59;76.35
75418;BME280;63997;52.112;5.420;2023-03-02T08:25:12;102684.13;;;5.65;70.29
75418;BME280;63997;52.112;5.420;2023-03-02T08:27:40;102681.88;;;5.23;69.61
75418;BME280;63997;52.112;5.420;2023-03-02T08:30:07;102681.84;;;5.07;70.58
75418;BME280;63997;52.112;5.420;2023-03-02T08:32:33;102681.63;;;5.25;69.79
75418;BME280;63997;52.112;5.420;2023-03-02T08:35:00;102685.09;;;5.42;69.24
75418;BME280;63997;52.112;5.420;2023-03-02T08:37:26;102683.69;;;5.68;68.89
75418;BME280;63997;52.112;5.420;2023-03-02T08:39:53;102684.59;;;6.29;67.02
75418;BME280;63997;52.112;5.420;2023-03-02T08:42:21;102671.84;;;6.92;65.87
75418;BME280;63997;52.112;5.420;2023-03-02T08:44:48;102677.44;;;7.55;64.07
75418;BME280;63997;52.112;5.420;2023-03-02T08:47:14;102687.19;;;6.46;63.46
75418;BME280;63997;52.112;5.420;2023-03-02T08:49:40;102701.41;;;5.39;66.43
75418;BME280;63997;52.112;5.420;2023-03-02T08:52:07;102694.66;;;4.74;68.15
75418;BME280;63997;52.112;5.420;2023-03-02T08:54:34;102695.53;;;4.51;69.75
75418;BME280;63997;52.112;5.420;2023-03-02T08:57:01;102689.38;;;4.34;70.91
75418;BME280;63997;52.112;5.420;2023-03-02T08:59:27;102693.69;;;5.21;69.99
75418;BME280;63997;52.112;5.420;2023-03-02T09:01:53;102690.53;;;5.36;68.55
75418;BME280;63997;52.112;5.420;2023-03-02T09:04:20;102689.59;;;4.85;69.31
75418;BME280;63997;52.112;5.420;2023-03-02T09:06:46;102687.38;;;4.93;70.36
75418;BME280;63997;52.112;5.420;2023-03-02T09:09:14;102680.56;;;6.27;69.37
75418;BME280;63997;52.112;5.420;2023-03-02T09:11:40;102677.66;;;8.33;63.01
75418;BME280;63997;52.112;5.420;2023-03-02T09:14:08;102682.78;;;7.97;61.31
75418;BME280;63997;52.112;5.420;2023-03-02T09:16:34;102672.59;;;7.84;62.70
75418;BME280;63997;52.112;5.420;2023-03-02T09:19:01;102673.63;;;8.20;61.18
75418;BME280;63997;52.112;5.420;2023-03-02T09:21:27;102658.81;;;9.73;58.26
75418;BME280;63997;52.112;5.420;2023-03-02T09:23:54;102667.28;;;9.91;57.27
75418;BME280;63997;52.112;5.420;2023-03-02T09:26:24;102666.25;;;9.00;57.28
75418;BME280;63997;52.112;5.420;2023-03-02T09:28:51;102685.13;;;7.56;60.33
75418;BME280;63997;52.112;5.420;2023-03-02T09:31:18;102677.41;;;7.87;60.80
75418;BME280;63997;52.112;5.420;2023-03-02T09:33:44;102673.16;;;9.77;58.11
75418;BME280;63997;52.112;5.420;2023-03-02T09:36:17;102660.41;;;9.79;56.31
75418;BME280;63997;52.112;5.420;2023-03-02T09:38:43;102668.84;;;8.80;56.99
75418;BME280;63997;52.112;5.420;2023-03-02T09:41:30;102674.59;;;8.56;59.17
75418;BME280;63997;52.112;5.420;2023-03-02T09:47:08;102673.41;;;8.99;57.69
75418;BME280;63997;52.112;5.420;2023-03-02T09:50:01;102684.31;;;7.88;60.15
75418;BME280;63997;52.112;5.420;2023-03-02T09:52:37;102679.72;;;7.46;61.38
75418;BME280;63997;52.112;5.420;2023-03-02T09:55:31;102679.16;;;7.12;62.52
75418;BME280;63997;52.112;5.420;2023-03-02T09:57:59;102681.09;;;6.95;63.44
75418;BME280;63997;52.112;5.420;2023-03-02T10:00:34;102684.63;;;6.78;63.81
75418;BME280;63997;52.112;5.420;2023-03-02T10:03:13;102676.91;;;6.72;64.44
75418;BME280;63997;52.112;5.420;2023-03-02T10:05:53;102681.19;;;6.78;65.30
75418;BME280;63997;52.112;5.420;2023-03-02T10:08:22;102684.41;;;6.80;64.56
75418;BME280;63997;52.112;5.420;2023-03-02T10:11:00;102681.97;;;6.51;65.24
75418;BME280;63997;52.112;5.420;2023-03-02T10:13:36;102685.19;;;6.36;65.56
75418;BME280;63997;52.112;5.420;2023-03-02T10:16:22;102688.75;;;6.25;66.38
75418;BME280;63997;52.112;5.420;2023-03-02T10:26:57;102683.91;;;6.39;66.35
75418;BME280;63997;52.112;5.420;2023-03-02T10:29:37;102674.50;;;6.48;66.43
75418;BME280;63997;52.112;5.420;2023-03-02T10:32:18;102675.91;;;6.56;66.02
75418;BME280;63997;52.112;5.420;2023-03-02T10:34:46;102681.09;;;6.46;65.77
75418;BME280;63997;52.112;5.420;2023-03-02T10:37:22;102672.78;;;6.59;66.19
75418;BME280;63997;52.112;5.420;2023-03-02T10:39:51;102665.28;;;6.73;65.37
75418;BME280;63997;52.112;5.420;2023-03-02T10:42:38;102671.91;;;6.75;65.50
75418;BME280;63997;52.112;5.420;2023-03-02T10:45:20;102673.31;;;6.83;65.49
75418;BME280;63997;52.112;5.420;2023-03-02T10:47:59;102663.97;;;6.97;65.37
75418;BME280;63997;52.112;5.420;2023-03-02T10:50:26;102668.75;;;7.00;65.22
75418;BME280;63997;52.112;5.420;2023-03-02T10:52:52;102667.69;;;7.01;64.76
75418;BME280;63997;52.112;5.420;2023-03-02T10:55:26;102657.66;;;7.03;64.53
75418;BME280;63997;52.112;5.420;2023-03-02T11:00:29;102649.06;;;7.18;63.25
75418;BME280;63997;52.112;5.420;2023-03-02T11:03:16;102648.34;;;7.28;64.15
75418;BME280;63997;52.112;5.420;2023-03-02T11:05:45;102651.41;;;7.41;62.99
75418;BME280;63997;52.112;5.420;2023-03-02T11:08:37;102643.38;;;7.31;62.39
75418;BME280;63997;52.112;5.420;2023-03-02T11:11:04;102647.34;;;7.34;62.67
75418;BME280;63997;52.112;5.420;2023-03-02T11:13:33;102647.97;;;7.41;62.04
75418;BME280;63997;52.112;5.420;2023-03-02T11:16:23;102642.78;;;7.61;61.79
75418;BME280;63997;52.112;5.420;2023-03-02T11:19:01;102632.81;;;7.74;61.94
75418;BME280;63997;52.112;5.420;2023-03-02T11:21:33;102637.91;;;7.85;60.41
75418;BME280;63997;52.112;5.420;2023-03-02T11:24:11;102628.97;;;7.91;61.03
75418;BME280;63997;52.112;5.420;2023-03-02T11:26:51;102626.94;;;8.09;60.50
75418;BME280;63997;52.112;5.420;2023-03-02T11:29:44;102618.78;;;8.26;60.29
75418;BME280;63997;52.112;5.420;2023-03-02T11:32:17;102614.38;;;8.52;59.95
75418;BME280;63997;52.112;5.420;2023-03-02T11:34:51;102612.06;;;8.70;58.98
75418;BME280;63997;52.112;5.420;2023-03-02T11:37:22;102610.22;;;8.71;59.45
75418;BME280;63997;52.112;5.420;2023-03-02T11:39:54;102601.44;;;8.81;59.00
75418;BME280;63997;52.112;5.420;2023-03-02T11:42:40;102605.44;;;8.83;58.67
75418;BME280;63997;52.112;5.420;2023-03-02T11:45:16;102603.59;;;8.84;57.39
75418;BME280;63997;52.112;5.420;2023-03-02T11:47:52;102607.59;;;8.96;58.34
75418;BME280;63997;52.112;5.420;2023-03-02T11:50:28;102600.97;;;9.09;57.41
75418;BME280;63997;52.112;5.420;2023-03-02T11:53:01;102596.19;;;9.21;57.45
75418;BME280;63997;52.112;5.420;2023-03-02T11:55:42;102592.72;;;9.31;57.01
75418;BME280;63997;52.112;5.420;2023-03-02T11:58:16;102595.13;;;9.27;56.74
75418;BME280;63997;52.112;5.420;2023-03-02T12:00:44;102586.38;;;9.32;56.65
75418;BME280;63997;52.112;5.420;2023-03-02T12:05:42;102573.03;;;9.47;55.68
75418;BME280;63997;52.112;5.420;2023-03-02T12:10:59;102576.25;;;9.34;56.88
75418;BME280;63997;52.112;5.420;2023-03-02T12:13:37;102574.91;;;9.42;56.34
75418;BME280;63997;52.112;5.420;2023-03-02T12:16:18;102565.91;;;9.33;56.42
75418;BME280;63997;52.112;5.420;2023-03-02T12:18:47;102562.19;;;9.39;55.72
75418;BME280;63997;52.112;5.420;2023-03-02T12:21:17;102563.22;;;9.53;54.77
75418;BME280;63997;52.112;5.420;2023-03-02T12:29:05;102558.16;;;9.57;54.96
75418;BME280;63997;52.112;5.420;2023-03-02T12:31:43;102553.13;;;9.60;54.81
75418;BME280;63997;52.112;5.420;2023-03-02T12:34:24;102548.28;;;9.77;54.73
75418;BME280;63997;52.112;5.420;2023-03-02T12:36:57;102551.72;;;9.83;54.72
75418;BME280;63997;52.112;5.420;2023-03-02T12:42:33;102553.81;;;9.81;54.03
75418;BME280;63997;52.112;5.420;2023-03-02T12:45:37;102549.56;;;9.90;54.13
75418;BME280;63997;52.112;5.420;2023-03-02T12:48:30;102546.38;;;9.93;52.85
75418;BME280;63997;52.112;5.420;2023-03-02T12:51:04;102538.16;;;9.79;53.36
75418;BME280;63997;52.112;5.420;2023-03-02T12:53:37;102534.91;;;9.93;53.59
75418;BME280;63997;52.112;5.420;2023-03-02T12:56:06;102541.75;;;10.09;54.30
75418;BME280;63997;52.112;5.420;2023-03-02T12:58:33;102540.13;;;10.23;53.89
75418;BME280;63997;52.112;5.420;2023-03-02T13:01:01;102541.97;;;10.23;53.50
75418;BME280;63997;52.112;5.420;2023-03-02T13:03:30;102539.84;;;10.25;52.51
75418;BME280;63997;52.112;5.420;2023-03-02T13:06:01;102534.81;;;10.18;52.62
75418;BME280;63997;52.112;5.420;2023-03-02T13:08:29;102531.06;;;10.24;52.46
75418;BME280;63997;52.112;5.420;2023-03-02T13:10:59;102524.69;;;10.25;51.79
75418;BME280;63997;52.112;5.420;2023-03-02T13:13:38;102516.19;;;10.23;52.29
75418;BME280;63997;52.112;5.420;2023-03-02T13:16:18;102516.41;;;10.32;51.30
75418;BME280;63997;52.112;5.420;2023-03-02T13:18:45;102508.94;;;10.39;51.66
75418;BME280;63997;52.112;5.420;2023-03-02T13:21:13;102502.72;;;10.49;52.24
75418;BME280;63997;52.112;5.420;2023-03-02T13:23:45;102507.25;;;10.48;51.59
75418;BME280;63997;52.112;5.420;2023-03-02T13:29:02;102502.19;;;10.52;51.35
75418;BME280;63997;52.112;5.420;2023-03-02T13:31:29;102503.28;;;10.46;50.18
75418;BME280;63997;52.112;5.420;2023-03-02T13:33:57;102503.59;;;10.39;49.92
75418;BME280;63997;52.112;5.420;2023-03-02T13:36:27;102498.34;;;10.29;49.30
75418;BME280;63997;52.112;5.420;2023-03-02T13:38:56;102498.06;;;10.30;50.64
75418;BME280;63997;52.112;5.420;2023-03-02T13:41:29;102492.88;;;10.49;50.45
75418;BME280;63997;52.112;5.420;2023-03-02T13:43:56;102497.88;;;10.61;51.16